Wenceslau Guimaraes, Brazil
Current Conditions -  °F | °C
As of 11:00 AM on Friday 19 Dec 2014 (Local Time) from SBIL Reporting Station
Moderate Rain Moderate Rain  
Wind Chill: 73°   Ceiling: 1000
Heat Index: 73°   Visibility: 1.2mi
Dew Point: 72°   Wind: 9mph
Humidity: 94%   Direction: 70°ENE
Pressure: NA   Gusts: NA
Location:  13.69°S, 39.48°W
Report Text: SBIL 191400Z 07008KT 2000 RA BR SCT005 BKN010 OVC100 23/22 Q1014
Loading
Personal Weather Stations






























Interactive Weather Map New forecast layout! Learn more

10-Day Weather Forecast

Advertisements
Track Severe Weather on mobile